Time;durP1;ratioP1;P1;durP2;ratioP2;P2;SDS_P1;SDS_P2;PMS_P1;PMS_P2;Temp;Humidity;BMP_temperature;BMP_pressure;BME280_temperature;BME280_humidity;BME280_pressure;Samples;Min_cycle;Max_cycle;Signal;HPM_P1;HPM_P2
2022/05/21 00:01:13;;;;;;;16.93;4.47;;;;;;;15.07;64.52;101842.25;5147011;28;20451;-46
2022/05/21 00:03:45;;;;;;;18.77;4.73;;;;;;;15.03;64.59;101841.72;5148973;28;20570;-47
2022/05/21 00:06:19;;;;;;;23.53;5.67;;;;;;;15.03;64.51;101833.75;5143861;28;20465;-49
2022/05/21 00:08:52;;;;;;;27.27;5.75;;;;;;;15.05;64.46;101837.09;5150277;28;20425;-45
2022/05/21 00:11:24;;;;;;;26.85;4.93;;;;;;;15.08;64.49;101844.75;5136121;28;20554;-49
2022/05/21 00:13:58;;;;;;;23.88;5.70;;;;;;;15.04;64.41;101837.22;5146683;28;20561;-46
2022/05/21 00:16:31;;;;;;;24.27;5.10;;;;;;;15.04;64.40;101838.06;5150673;28;20409;-47
2022/05/21 00:19:04;;;;;;;22.20;5.13;;;;;;;15.08;64.36;101852.75;5145341;28;20501;-48
2022/05/21 00:21:37;;;;;;;31.33;6.60;;;;;;;15.06;64.32;101829.94;5145218;28;20479;-48
2022/05/21 00:24:09;;;;;;;24.40;5.70;;;;;;;15.08;64.41;101838.59;5144857;28;20430;-47
2022/05/21 00:26:42;;;;;;;26.45;5.38;;;;;;;15.04;64.46;101843.38;5144358;28;20426;-45
2022/05/21 00:29:16;;;;;;;31.38;5.68;;;;;;;15.02;64.42;101842.72;5150243;28;20492;-47
2022/05/21 00:31:49;;;;;;;22.75;6.15;;;;;;;15.01;64.50;101853.50;5141356;28;20428;-46
2022/05/21 00:34:22;;;;;;;26.08;6.03;;;;;;;14.78;64.35;101826.56;5144192;28;20438;-52
2022/05/21 00:36:54;;;;;;;26.02;6.22;;;;;;;14.92;64.46;101839.28;5146481;28;20818;-53
2022/05/21 00:39:27;;;;;;;23.58;5.80;;;;;;;15.00;64.33;101860.66;5145890;28;20513;-52
2022/05/21 00:42:06;;;;;;;28.08;6.50;;;;;;;15.01;64.26;101853.50;5142903;28;20458;-48
2022/05/21 00:44:40;;;;;;;25.87;6.47;;;;;;;14.97;64.36;101856.47;5140182;28;21045;-52
2022/05/21 00:47:12;;;;;;;24.77;7.03;;;;;;;14.87;64.21;101820.31;5147292;28;20889;-52
2022/05/21 00:49:45;;;;;;;20.42;6.00;;;;;;;14.93;64.26;101835.66;5145745;28;20434;-49
2022/05/21 00:52:23;;;;;;;24.10;6.15;;;;;;;14.99;64.16;101851.00;5147107;28;21320;-50
2022/05/21 00:54:59;;;;;;;28.30;6.35;;;;;;;14.88;64.21;101833.44;5142542;28;20417;-54
2022/05/21 00:57:36;;;;;;;24.63;5.28;;;;;;;14.86;64.32;101829.25;5148811;28;20430;-46
2022/05/21 01:00:14;;;;;;;23.00;5.82;;;;;;;14.97;64.24;101848.50;5142131;28;20517;-51
2022/05/21 01:02:51;;;;;;;25.77;6.27;;;;;;;14.99;64.14;101843.03;5144566;28;20567;-46
2022/05/21 01:05:27;;;;;;;23.52;5.72;;;;;;;14.95;64.17;101844.31;5142913;28;20494;-46
2022/05/21 01:08:02;;;;;;;29.30;6.55;;;;;;;14.95;64.11;101844.31;5144104;28;20499;-47
2022/05/21 01:10:41;;;;;;;26.30;5.63;;;;;;;14.81;64.11;101834.22;5150571;28;20430;-47
2022/05/21 01:13:18;;;;;;;22.65;5.80;;;;;;;14.81;64.19;101829.75;5146397;28;20506;-49
2022/05/21 01:15:54;;;;;;;24.23;6.60;;;;;;;14.95;64.07;101855.78;5140709;28;20418;-49
2022/05/21 01:18:30;;;;;;;31.73;6.97;;;;;;;14.98;64.02;101849.31;5142287;28;20853;-49
2022/05/21 01:21:03;;;;;;;27.15;6.32;;;;;;;15.03;63.93;101849.69;5139977;28;20847;-51
2022/05/21 01:23:39;;;;;;;31.65;6.15;;;;;;;15.05;63.63;101849.53;5145596;28;20953;-51
2022/05/21 01:26:16;;;;;;;30.85;7.57;;;;;;;14.98;63.80;101833.34;5143510;28;20434;-50
2022/05/21 01:28:49;;;;;;;29.27;7.40;;;;;;;14.97;63.74;101827.22;5148633;28;20509;-46
2022/05/21 01:31:22;;;;;;;37.47;8.57;;;;;;;15.05;63.81;101830.91;5139138;28;20434;-50
2022/05/21 01:33:57;;;;;;;34.72;8.00;;;;;;;15.06;63.90;101840.59;5140059;28;20557;-51
2022/05/21 01:36:32;;;;;;;28.03;6.57;;;;;;;15.08;63.89;101833.25;5147073;28;20520;-49
2022/05/21 01:39:06;;;;;;;31.38;7.68;;;;;;;15.09;63.88;101841.09;5141581;28;20507;-48
2022/05/21 01:41:41;;;;;;;27.75;6.65;;;;;;;14.96;63.84;101819.41;5137781;28;20517;-49
2022/05/21 01:47:07;;;;;;;30.05;6.88;;;;;;;15.06;63.95;101832.59;5148204;28;20791;-47
2022/05/21 01:49:41;;;;;;;30.33;6.68;;;;;;;15.12;63.95;101839.97;5145715;28;20963;-50
2022/05/21 01:52:14;;;;;;;21.85;5.90;;;;;;;15.10;63.88;101842.75;5144631;28;20775;-47
2022/05/21 01:54:48;;;;;;;37.58;7.70;;;;;;;15.02;63.95;101824.09;5147628;28;20434;-50
2022/05/21 01:57:21;;;;;;;24.63;6.55;;;;;;;15.03;64.02;101827.59;5148769;28;20508;-50
2022/05/21 01:59:53;;;;;;;36.22;6.57;;;;;;;15.05;63.99;101834.44;5141280;28;20769;-44
2022/05/21 02:02:29;;;;;;;30.95;7.18;;;;;;;15.09;63.96;101835.78;5139701;28;20422;-52
2022/05/21 02:05:01;;;;;;;33.00;8.10;;;;;;;15.10;63.92;101842.75;5140175;28;20524;-49
2022/05/21 02:07:34;;;;;;;31.63;6.77;;;;;;;15.10;63.97;101842.75;5135762;28;20426;-51
2022/05/21 02:10:08;;;;;;;22.98;6.85;;;;;;;15.08;63.96;101846.56;5144494;28;20412;-47
2022/05/21 02:12:41;;;;;;;38.45;8.55;;;;;;;15.03;63.88;101840.91;5141791;28;20581;-49
2022/05/21 02:15:13;;;;;;;29.45;7.05;;;;;;;15.08;63.96;101850.09;5142505;28;20430;-47
2022/05/21 02:17:46;;;;;;;37.53;6.63;;;;;;;15.08;63.97;101852.75;5142189;28;20517;-51
2022/05/21 02:20:18;;;;;;;38.90;7.10;;;;;;;15.07;64.34;101848.41;5152950;28;20418;-51
2022/05/21 02:22:51;;;;;;;39.13;6.38;;;;;;;15.06;64.03;101849.41;5148400;28;20816;-47
2022/05/21 02:25:25;;;;;;;39.53;7.38;;;;;;;15.09;63.98;101853.56;5147420;28;20433;-47
2022/05/21 02:27:57;;;;;;;30.98;6.68;;;;;;;15.07;64.00;101853.72;5148592;28;21557;-50
2022/05/21 02:30:31;;;;;;;32.35;7.15;;;;;;;15.03;63.93;101851.53;5151238;28;20434;-51
2022/05/21 02:33:03;;;;;;;36.03;7.88;;;;;;;15.01;64.11;101857.00;5150825;28;20430;-50
2022/05/21 02:35:36;;;;;;;33.15;7.78;;;;;;;14.88;63.99;101851.25;5143982;28;20482;-53
2022/05/21 02:41:03;;;;;;;31.33;7.75;;;;;;;14.85;64.02;101846.22;5145892;28;20985;-48
2022/05/21 02:43:35;;;;;;;33.28;6.57;;;;;;;14.91;64.05;101869.56;5147530;28;20556;-49
2022/05/21 02:46:09;;;;;;;27.52;6.90;;;;;;;14.87;64.01;101857.56;5150596;28;20471;-55
2022/05/21 02:48:42;;;;;;;29.90;6.13;;;;;;;14.85;63.99;101884.28;5150638;28;20507;-52
2022/05/21 02:51:15;;;;;;;32.83;7.18;;;;;;;14.84;64.13;101864.00;5145951;28;20761;-50
2022/05/21 02:53:47;;;;;;;31.10;6.70;;;;;;;14.72;63.99;101843.94;5145872;28;21028;-53
2022/05/21 02:56:21;;;;;;;27.17;6.55;;;;;;;14.78;64.03;101858.47;5148617;28;20434;-49
2022/05/21 02:58:53;;;;;;;30.73;7.03;;;;;;;14.73;64.11;101846.44;5146673;28;20433;-48
2022/05/21 03:01:26;;;;;;;27.30;6.32;;;;;;;14.74;63.94;101853.47;5149833;28;20431;-48
2022/05/21 03:03:58;;;;;;;28.23;6.00;;;;;;;14.70;64.00;101859.22;5143888;28;20851;-51
2022/05/21 03:06:31;;;;;;;30.23;5.95;;;;;;;14.72;64.05;101860.75;5152025;28;20426;-52
2022/05/21 03:11:55;;;;;;;31.92;6.45;;;;;;;14.66;63.95;101860.50;5145767;28;20830;-48
2022/05/21 03:14:27;;;;;;;29.05;6.25;;;;;;;14.66;63.98;101866.66;5141234;28;20426;-48
2022/05/21 03:17:01;;;;;;;29.60;5.82;;;;;;;14.65;63.98;101870.31;5147773;28;20426;-53
2022/05/21 03:19:36;;;;;;;34.63;6.70;;;;;;;14.65;63.95;101869.50;5148701;28;20765;-51
2022/05/21 03:22:08;;;;;;;27.80;5.95;;;;;;;14.63;64.02;101874.09;5154292;28;20409;-49
2022/05/21 03:24:41;;;;;;;30.70;6.82;;;;;;;14.61;63.99;101868.94;5143946;28;20441;-49
2022/05/21 03:27:15;;;;;;;32.58;7.03;;;;;;;14.53;64.06;101864.38;5145861;28;24542;-49
2022/05/21 03:29:48;;;;;;;33.35;7.00;;;;;;;14.61;63.88;101879.56;5146260;28;20431;-51
2022/05/21 03:32:20;;;;;;;41.88;6.68;;;;;;;14.45;63.86;101852.78;5150268;28;21027;-51
2022/05/21 03:34:53;;;;;;;34.40;7.45;;;;;;;14.51;63.89;101866.34;5147093;28;20440;-52
2022/05/21 03:37:25;;;;;;;39.72;7.07;;;;;;;14.58;63.90;101879.88;5142051;28;20490;-49
2022/05/21 03:39:58;;;;;;;27.95;6.30;;;;;;;14.51;63.94;101878.81;5145281;28;20587;-49
2022/05/21 03:42:32;;;;;;;23.90;5.53;;;;;;;14.44;63.93;101867.06;5150595;28;20521;-50
2022/05/21 03:45:05;;;;;;;25.67;5.93;;;;;;;14.54;63.87;101878.50;5152849;28;20484;-51
2022/05/21 03:47:38;;;;;;;25.13;6.53;;;;;;;14.19;63.90;101824.28;5141713;28;20420;-51
2022/05/21 03:50:13;;;;;;;31.08;6.78;;;;;;;14.47;63.92;101872.94;5146303;28;20430;-50
2022/05/21 03:52:46;;;;;;;26.92;6.72;;;;;;;14.48;63.90;101877.25;5147502;28;20404;-48
2022/05/21 03:55:19;;;;;;;26.30;6.07;;;;;;;14.53;63.98;101882.16;5149555;28;20421;-51
2022/05/21 03:57:52;;;;;;;31.15;5.35;;;;;;;14.55;63.87;101889.97;5146182;28;20429;-51
2022/05/21 04:00:25;;;;;;;24.80;6.23;;;;;;;14.52;63.96;101886.66;5148652;28;20493;-52
2022/05/21 04:02:59;;;;;;;29.48;6.00;;;;;;;14.57;63.91;101902.13;5145841;28;20910;-51
2022/05/21 04:05:32;;;;;;;24.08;6.30;;;;;;;14.57;63.94;101899.47;5143079;28;20531;-47
2022/05/21 04:08:05;;;;;;;24.38;5.03;;;;;;;14.60;63.89;101901.81;5148477;28;20953;-50
2022/05/21 04:10:37;;;;;;;19.50;5.10;;;;;;;14.55;63.85;101890.78;5149205;28;20552;-49
2022/05/21 04:13:11;;;;;;;26.48;4.93;;;;;;;14.56;63.75;101887.19;5144287;28;20908;-48
2022/05/21 04:15:44;;;;;;;25.67;5.88;;;;;;;14.62;63.77;101893.72;5143580;28;20433;-51
2022/05/21 04:18:19;;;;;;;23.90;5.50;;;;;;;14.69;63.83;101914.22;5145589;28;20421;-49
2022/05/21 04:20:51;;;;;;;29.10;5.22;;;;;;;14.72;63.76;101919.25;5152058;28;20426;-49
2022/05/21 04:23:24;;;;;;;21.60;6.05;;;;;;;14.72;63.87;101913.91;5146113;28;20436;-51
2022/05/21 04:25:56;;;;;;;28.38;5.68;;;;;;;14.80;63.71;101917.63;5148434;28;20846;-53
2022/05/21 04:28:30;;;;;;;26.70;5.93;;;;;;;14.84;63.57;101917.19;5150243;28;20426;-53
2022/05/21 04:31:03;;;;;;;23.65;5.38;;;;;;;14.88;63.47;101923.06;5146895;28;20432;-51
2022/05/21 04:33:35;;;;;;;20.75;4.68;;;;;;;14.89;63.40;101914.91;5149649;28;20513;-52
2022/05/21 04:36:21;;;;;;;30.67;4.90;;;;;;;15.01;63.33;101920.84;5146297;28;20481;-49
2022/05/21 04:38:55;;;;;;;20.42;4.80;;;;;;;15.02;63.38;101913.69;5140790;28;20427;-46
2022/05/21 04:41:28;;;;;;;24.00;4.90;;;;;;;15.11;63.38;101928.72;5133025;28;20493;-50
2022/05/21 04:44:02;;;;;;;18.00;4.60;;;;;;;15.09;63.02;101941.38;5142004;28;20412;-47
2022/05/21 04:46:36;;;;;;;27.63;5.03;;;;;;;15.15;63.15;101935.44;5143536;28;20423;-50
2022/05/21 04:49:08;;;;;;;20.77;4.18;;;;;;;15.20;63.08;101928.66;5143944;28;21229;-49
2022/05/21 04:51:41;;;;;;;27.80;5.43;;;;;;;15.17;62.78;101917.47;5144941;28;20434;-51
2022/05/21 04:54:13;;;;;;;20.55;4.35;;;;;;;15.16;62.81;101937.09;5131163;28;20497;-50
2022/05/21 04:56:46;;;;;;;15.82;4.38;;;;;;;15.14;62.84;101939.94;5147541;28;20415;-47
2022/05/21 04:59:19;;;;;;;31.00;5.43;;;;;;;15.13;62.78;101940.91;5142219;28;20429;-48
2022/05/21 05:01:52;;;;;;;31.10;5.32;;;;;;;15.13;62.65;101942.72;5144562;28;20418;-52
2022/05/21 05:04:24;;;;;;;24.05;5.20;;;;;;;15.18;62.56;101943.94;5141937;28;20422;-53
2022/05/21 05:06:57;;;;;;;22.63;5.40;;;;;;;14.79;62.46;101881.41;5141639;28;20420;-47
2022/05/21 05:09:29;;;;;;;28.83;5.53;;;;;;;15.23;62.42;101968.25;5147556;28;20437;-52
2022/05/21 05:12:02;;;;;;;22.27;5.57;;;;;;;15.23;62.32;101943.47;5143242;28;20463;-52
2022/05/21 05:14:36;;;;;;;22.30;4.72;;;;;;;15.35;62.27;101957.38;5145110;28;20439;-49
2022/05/21 05:17:11;;;;;;;20.77;5.07;;;;;;;15.43;62.02;101938.84;5146010;28;20518;-51
2022/05/21 05:19:45;;;;;;;19.80;4.88;;;;;;;16.36;61.12;101942.56;5143933;28;20408;-49
2022/05/21 05:22:18;;;;;;;19.20;4.63;;;;;;;17.87;59.76;101943.25;5141135;28;20796;-48
2022/05/21 05:24:51;;;;;;;15.88;4.15;;;;;;;19.33;58.17;101956.03;5141358;28;20898;-50
2022/05/21 05:27:24;;;;;;;17.52;3.95;;;;;;;20.70;56.85;101954.69;5145542;28;20432;-52
2022/05/21 05:29:57;;;;;;;17.77;3.63;;;;;;;21.93;55.49;101952.69;5140813;28;20449;-55
2022/05/21 05:32:33;;;;;;;19.58;3.88;;;;;;;23.12;54.02;101949.63;5147057;28;20475;-56
2022/05/21 05:35:06;;;;;;;17.93;4.00;;;;;;;24.11;52.56;101942.47;5141607;28;20546;-59
2022/05/21 05:37:39;;;;;;;15.13;3.10;;;;;;;25.07;51.25;101942.38;5146095;28;20424;-55
2022/05/21 05:40:20;;;;;;;18.08;3.67;;;;;;;26.01;49.81;101955.91;5147699;28;20861;-51
2022/05/21 05:42:53;;;;;;;20.10;3.87;;;;;;;26.79;48.36;101948.91;5148602;28;20520;-56
2022/05/21 05:45:27;;;;;;;20.08;3.47;;;;;;;27.54;47.27;101968.16;5135850;28;20839;-52
2022/05/21 05:47:59;;;;;;;13.98;3.67;;;;;;;28.04;46.22;101964.97;5145850;28;20429;-56
2022/05/21 05:50:32;;;;;;;17.42;3.60;;;;;;;28.60;45.02;101969.91;5145527;28;20421;-56
2022/05/21 05:53:07;;;;;;;19.73;3.80;;;;;;;29.18;44.19;101963.34;5144136;28;20470;-54
2022/05/21 05:55:45;;;;;;;11.57;2.85;;;;;;;29.81;43.24;101970.31;5150355;28;20849;-56
2022/05/21 06:01:09;;;;;;;14.77;3.23;;;;;;;30.69;41.30;101966.72;5154220;28;20507;-57
2022/05/21 06:03:42;;;;;;;16.88;3.42;;;;;;;31.10;40.63;101981.59;5150467;28;20434;-57
2022/05/21 06:06:14;;;;;;;19.15;4.40;;;;;;;31.48;39.97;101968.81;5151455;28;20862;-54
2022/05/21 06:08:47;;;;;;;15.70;3.95;;;;;;;31.78;39.15;101967.38;5145579;28;20889;-56
2022/05/21 06:11:20;;;;;;;18.65;3.70;;;;;;;32.08;38.77;101970.25;5152049;28;20969;-55
2022/05/21 06:13:52;;;;;;;12.77;3.90;;;;;;;32.51;37.94;101976.44;5152152;28;20552;-54
2022/05/21 06:16:26;;;;;;;17.47;3.53;;;;;;;32.69;37.44;101979.75;5152099;28;20649;-53
2022/05/21 06:18:58;;;;;;;13.87;3.37;;;;;;;32.93;36.68;101986.34;5136328;28;20518;-54
2022/05/21 06:21:31;;;;;;;19.30;3.67;;;;;;;33.11;36.22;101992.38;5155124;28;21482;-55
2022/05/21 06:24:04;;;;;;;15.25;3.85;;;;;;;33.31;36.09;101986.09;5145539;28;20957;-52
2022/05/21 06:26:36;;;;;;;16.77;3.78;;;;;;;33.16;35.75;101956.81;5148408;28;20440;-57
2022/05/21 06:29:09;;;;;;;18.65;4.47;;;;;;;33.67;35.44;102017.03;5139650;28;20414;-52
2022/05/21 06:31:43;;;;;;;15.40;3.90;;;;;;;33.60;35.11;102019.22;5145545;28;20426;-54
2022/05/21 06:34:16;;;;;;;17.52;3.65;;;;;;;33.59;34.71;102020.31;5144292;28;20461;-54
2022/05/21 06:36:48;;;;;;;15.93;3.67;;;;;;;33.62;34.45;102026.06;5146825;28;20484;-55
2022/05/21 06:39:20;;;;;;;14.68;3.45;;;;;;;33.30;34.58;101988.03;5115454;28;20513;-55
2022/05/21 06:41:53;;;;;;;18.23;3.33;;;;;;;33.23;34.64;102028.53;5131570;28;20501;-53
2022/05/21 06:44:25;;;;;;;12.77;3.80;;;;;;;33.31;34.62;102036.19;5141852;28;20437;-55
2022/05/21 06:46:59;;;;;;;12.82;3.40;;;;;;;33.36;34.01;102033.47;5155098;28;20513;-54
2022/05/21 06:49:32;;;;;;;15.75;3.60;;;;;;;33.35;34.10;102026.34;5145980;28;20430;-54
2022/05/21 06:52:05;;;;;;;15.47;4.00;;;;;;;33.46;33.85;102038.94;5148398;28;20509;-53
2022/05/21 06:54:38;;;;;;;14.48;4.07;;;;;;;33.39;33.85;102021.16;5149788;28;20478;-53
2022/05/21 06:57:13;;;;;;;16.10;3.65;;;;;;;33.73;33.47;102043.31;5134466;28;20483;-54
2022/05/21 06:59:45;;;;;;;14.60;2.97;;;;;;;33.69;33.25;102039.47;5149062;28;20418;-53
2022/05/21 07:02:19;;;;;;;14.75;3.58;;;;;;;33.75;33.21;102041.09;5132071;28;20864;-55
2022/05/21 07:07:45;;;;;;;14.10;3.15;;;;;;;33.27;33.54;102046.06;5143045;28;20970;-55
2022/05/21 07:10:21;;;;;;;14.55;3.17;;;;;;;33.18;33.37;102055.91;5146185;28;20458;-56
2022/05/21 07:12:54;;;;;;;14.52;3.53;;;;;;;33.10;33.38;102061.94;5134521;28;20429;-54
2022/05/21 07:15:30;;;;;;;13.05;3.72;;;;;;;33.12;33.57;102052.34;5139334;28;20426;-54
2022/05/21 07:18:04;;;;;;;10.95;3.03;;;;;;;33.12;33.44;102052.34;5147679;28;20418;-54
2022/05/21 07:20:36;;;;;;;14.88;3.63;;;;;;;33.04;33.18;102052.88;5145977;28;20426;-54
2022/05/21 07:23:09;;;;;;;20.73;4.18;;;;;;;33.00;33.55;102058.06;5145947;28;20515;-54
2022/05/21 07:25:41;;;;;;;13.43;3.97;;;;;;;33.02;33.16;102066.84;5144113;28;20430;-58
2022/05/21 07:28:14;;;;;;;13.25;3.33;;;;;;;32.96;33.40;102056.13;5148262;28;20883;-55
2022/05/21 07:30:48;;;;;;;9.32;2.60;;;;;;;32.91;33.34;102059.69;5147551;28;20402;-55
2022/05/21 07:33:22;;;;;;;14.70;3.78;;;;;;;32.32;33.99;102051.81;5144464;28;20605;-56
2022/05/21 07:35:58;;;;;;;12.80;3.15;;;;;;;31.99;33.90;102042.88;5120972;28;20416;-54
2022/05/21 07:38:30;;;;;;;13.88;3.45;;;;;;;31.93;34.02;102043.94;5136936;28;20437;-55
2022/05/21 07:41:03;;;;;;;13.80;3.13;;;;;;;31.94;33.99;102051.06;5132091;28;20431;-56
2022/05/21 07:43:36;;;;;;;11.18;3.40;;;;;;;31.83;34.31;102072.00;5144035;28;20429;-53
2022/05/21 07:46:08;;;;;;;15.18;3.83;;;;;;;31.45;34.53;102068.44;5146083;28;20434;-56
2022/05/21 07:48:42;;;;;;;14.20;3.28;;;;;;;31.29;34.55;102079.47;5146793;28;20500;-58
2022/05/21 07:51:15;;;;;;;14.27;3.80;;;;;;;31.07;34.70;102085.81;5144872;28;20407;-56
2022/05/21 07:53:47;;;;;;;12.85;3.15;;;;;;;30.60;34.92;102091.81;5140378;28;20862;-58
2022/05/21 07:56:20;;;;;;;18.48;3.72;;;;;;;30.34;35.10;102104.25;5144253;28;20940;-58
2022/05/21 07:58:53;;;;;;;12.77;3.47;;;;;;;29.94;35.54;102096.31;5141033;28;20534;-57
2022/05/21 08:01:25;;;;;;;12.45;2.95;;;;;;;29.55;35.87;102096.22;5143209;28;20909;-59
2022/05/21 08:03:59;;;;;;;16.65;3.47;;;;;;;29.50;35.79;102096.13;5135382;28;20430;-57
2022/05/21 08:06:31;;;;;;;15.63;3.97;;;;;;;29.42;35.69;102078.28;5136122;28;20478;-55
2022/05/21 08:09:04;;;;;;;11.38;2.83;;;;;;;29.79;35.82;102113.22;5135692;28;20430;-55
2022/05/21 08:11:37;;;;;;;16.33;3.30;;;;;;;29.83;35.68;102106.22;5148098;28;20832;-54
2022/05/21 08:14:10;;;;;;;14.07;3.72;;;;;;;29.66;36.04;102095.31;5133571;28;20830;-57
2022/05/21 08:16:42;;;;;;;10.43;2.90;;;;;;;29.49;36.00;102108.09;5142693;28;20424;-58
2022/05/21 08:19:16;;;;;;;12.73;3.50;;;;;;;29.45;36.32;102120.50;5145249;28;20477;-57
2022/05/21 08:21:49;;;;;;;12.15;3.10;;;;;;;29.19;36.27;102092.84;5143920;28;20517;-57
2022/05/21 08:27:14;;;;;;;11.30;3.20;;;;;;;29.26;36.21;102115.28;5140812;28;20423;-56
2022/05/21 08:29:46;;;;;;;14.75;3.75;;;;;;;29.13;36.22;102119.13;5143875;28;20434;-57
2022/05/21 08:32:18;;;;;;;14.63;3.40;;;;;;;28.85;36.36;102090.00;5142246;28;20430;-56
2022/05/21 08:34:52;;;;;;;11.63;3.33;;;;;;;28.70;36.26;102070.66;5138189;28;20475;-54
2022/05/21 08:37:26;;;;;;;12.30;3.00;;;;;;;28.95;36.25;102122.00;5135289;28;20414;-54
2022/05/21 08:39:58;;;;;;;13.20;4.30;;;;;;;28.76;36.23;102109.66;5137484;28;20491;-53
2022/05/21 08:42:36;;;;;;;12.68;3.33;;;;;;;28.64;36.42;102117.84;5136881;28;20876;-53
2022/05/21 08:45:19;;;;;;;12.93;2.63;;;;;;;28.37;36.43;102122.91;5128249;28;20416;-52
2022/05/21 08:48:04;;;;;;;11.55;3.38;;;;;;;28.04;36.73;102117.03;5136284;28;20428;-52
2022/05/21 08:50:46;;;;;;;13.93;3.83;;;;;;;27.89;36.69;102119.38;5135268;28;20859;-51
2022/05/21 08:53:22;;;;;;;12.32;3.00;;;;;;;27.77;36.87;102123.94;5134588;28;20545;-55
2022/05/21 08:56:05;;;;;;;14.25;3.35;;;;;;;27.69;36.68;102122.41;5140303;28;20447;-52
2022/05/21 08:58:45;;;;;;;16.08;3.85;;;;;;;27.62;36.78;102126.28;5143200;28;20410;-50
2022/05/21 09:01:22;;;;;;;17.33;3.25;;;;;;;27.50;36.62;102123.53;5142527;28;20423;-52
2022/05/21 09:03:56;;;;;;;13.93;3.38;;;;;;;27.41;36.58;102127.63;5139641;28;20398;-49
2022/05/21 09:06:37;;;;;;;15.32;3.85;;;;;;;27.28;36.49;102140.31;5131376;28;20988;-54
2022/05/21 09:09:25;;;;;;;12.95;3.25;;;;;;;27.27;36.66;102130.53;5135027;28;20481;-53
2022/05/21 09:12:04;;;;;;;12.23;3.00;;;;;;;26.98;36.84;102131.34;5138826;28;20908;-50
2022/05/21 09:14:41;;;;;;;13.13;3.63;;;;;;;26.85;36.89;102129.59;5141658;28;20509;-50
2022/05/21 09:17:16;;;;;;;16.80;3.67;;;;;;;26.60;37.09;102127.81;5143153;28;20732;-53
2022/05/21 09:19:52;;;;;;;15.15;3.67;;;;;;;26.53;37.13;102124.31;5143524;28;20425;-54
2022/05/21 09:22:27;;;;;;;16.75;3.80;;;;;;;26.39;37.21;102117.38;5142337;28;20645;-40
2022/05/21 09:25:01;;;;;;;15.77;3.85;;;;;;;26.25;37.09;102099.59;5139249;28;20420;-48
2022/05/21 09:27:38;;;;;;;13.85;3.75;;;;;;;26.25;37.15;102118.56;5135725;28;20510;-50
2022/05/21 09:30:23;;;;;;;17.00;4.00;;;;;;;26.21;37.13;102127.13;5142859;28;20991;-50
2022/05/21 09:32:58;;;;;;;17.75;4.63;;;;;;;26.04;37.08;102112.47;5141491;28;20418;-52
2022/05/21 09:35:33;;;;;;;19.10;4.63;;;;;;;26.24;36.84;102119.63;5142886;28;20461;-50
2022/05/21 09:38:20;;;;;;;18.17;4.13;;;;;;;26.06;36.78;102093.31;5142212;28;20430;-51
2022/05/21 09:41:10;;;;;;;20.58;4.43;;;;;;;26.28;36.93;102142.47;5144123;28;20529;-46
2022/05/21 09:46:45;;;;;;;18.23;4.47;;;;;;;26.16;36.98;102143.19;5142097;28;20414;-51
2022/05/21 09:49:25;;;;;;;21.38;4.63;;;;;;;26.14;36.81;102142.63;5143379;28;20422;-49
2022/05/21 09:52:00;;;;;;;20.58;5.03;;;;;;;26.06;36.82;102132.06;5139850;28;20431;-51
2022/05/21 09:54:40;;;;;;;16.02;4.63;;;;;;;26.08;36.76;102138.09;5141750;28;20430;-49
2022/05/21 09:57:25;;;;;;;16.60;4.28;;;;;;;26.03;36.75;102143.31;5144796;28;20419;-52
2022/05/21 10:00:17;;;;;;;17.50;3.92;;;;;;;25.84;36.77;102131.63;5141035;28;20499;-50
2022/05/21 10:02:54;;;;;;;16.27;3.88;;;;;;;25.87;36.89;102146.59;5138943;28;20416;-50
2022/05/21 10:05:31;;;;;;;17.45;3.53;;;;;;;25.84;37.03;102147.03;5141400;28;20442;-52
2022/05/21 10:11:07;;;;;;;22.33;4.67;;;;;;;25.78;37.02;102146.00;5139731;28;20466;-49
2022/05/21 10:13:43;;;;;;;16.40;4.15;;;;;;;25.50;37.06;102124.75;5139809;28;20935;-47
2022/05/21 10:16:34;;;;;;;17.10;4.07;;;;;;;25.66;36.99;102150.44;5142600;28;20493;-51
2022/05/21 10:19:16;;;;;;;18.45;3.92;;;;;;;25.46;37.23;102161.41;5141365;28;20423;-48
2022/05/21 10:22:01;;;;;;;18.20;3.67;;;;;;;25.07;37.50;102168.63;5142323;28;20925;-52
2022/05/21 10:24:47;;;;;;;20.60;3.83;;;;;;;24.95;37.74;102165.75;5140355;28;20509;-51
2022/05/21 10:27:47;;;;;;;18.65;4.35;;;;;;;24.89;37.71;102168.47;5144429;28;20426;-49
2022/05/21 10:30:26;;;;;;;17.70;4.17;;;;;;;24.90;37.77;102164.72;5141601;28;20445;-50
2022/05/21 10:33:23;;;;;;;11.00;3.38;;;;;;;24.96;37.69;102166.56;5143739;28;20543;-51
2022/05/21 10:36:12;;;;;;;17.63;3.72;;;;;;;24.91;37.75;102174.50;5144918;28;20875;-50
2022/05/21 10:39:02;;;;;;;17.20;3.55;;;;;;;24.93;37.70;102183.22;5124692;28;20427;-48
2022/05/21 10:41:56;;;;;;;18.35;3.83;;;;;;;24.82;37.74;102169.31;5132933;28;20525;-52
2022/05/21 10:44:46;;;;;;;18.90;4.13;;;;;;;24.88;37.92;102188.44;5142844;28;20418;-49
2022/05/21 10:47:30;;;;;;;16.27;3.92;;;;;;;24.67;38.17;102167.91;5146792;28;20493;-51
2022/05/21 10:50:19;;;;;;;17.27;3.80;;;;;;;24.67;38.11;102176.84;5142841;28;20797;-52
2022/05/21 10:53:19;;;;;;;17.38;3.72;;;;;;;24.63;38.15;102177.50;5165442;28;20451;-48
2022/05/21 10:56:02;;;;;;;18.38;3.80;;;;;;;24.75;38.07;102183.91;5147590;28;20434;-49
2022/05/21 10:58:55;;;;;;;16.70;4.13;;;;;;;24.81;38.10;102181.19;5147513;28;20409;-49
2022/05/21 11:01:35;;;;;;;22.33;4.50;;;;;;;24.87;37.96;102179.50;5145777;28;20489;-50
2022/05/21 11:04:34;;;;;;;17.95;3.88;;;;;;;24.92;37.93;102181.56;5147432;28;20513;-50
2022/05/21 11:07:37;;;;;;;18.52;4.35;;;;;;;24.74;38.07;102169.53;5142988;28;20417;-52
2022/05/21 11:10:23;;;;;;;21.08;4.25;;;;;;;24.76;38.23;102183.69;5147664;28;20422;-48
2022/05/21 11:13:00;;;;;;;18.52;3.83;;;;;;;24.61;38.16;102165.00;5144601;28;20770;-47
2022/05/21 11:15:42;;;;;;;22.73;4.10;;;;;;;24.56;38.26;102155.91;5153649;28;20423;-49
2022/05/21 11:18:23;;;;;;;19.42;3.72;;;;;;;24.67;38.26;102179.53;5143960;28;20427;-46
2022/05/21 11:21:06;;;;;;;20.92;4.10;;;;;;;24.61;38.09;102181.22;5139518;28;20410;-46
2022/05/21 11:23:48;;;;;;;20.77;4.63;;;;;;;24.61;38.23;102191.19;5143239;28;20418;-53
2022/05/21 11:26:34;;;;;;;16.48;3.75;;;;;;;24.55;38.41;102194.72;5144444;28;20441;-51
2022/05/21 11:29:13;;;;;;;19.88;4.20;;;;;;;24.49;38.33;102179.38;5144688;28;20618;-49
2022/05/21 11:37:47;;;;;;;17.23;3.85;;;;;;;24.52;38.46;102209.47;5141419;28;20891;-46
2022/05/21 11:47:16;;;;;;;22.83;4.68;;;;;;;24.52;38.21;102195.97;5116922;28;20751;-48
2022/05/21 11:49:53;;;;;;;18.23;4.18;;;;;;;23.90;38.62;102129.72;5123107;28;20425;-52
2022/05/21 11:53:04;;;;;;;16.20;4.38;;;;;;;24.36;38.66;102193.69;5143851;28;20709;-52
2022/05/21 11:56:08;;;;;;;14.87;4.07;;;;;;;24.49;38.61;102204.50;5146244;28;20854;-47
2022/05/21 11:59:15;;;;;;;15.70;4.55;;;;;;;24.59;38.67;102204.09;5137008;28;20500;-50
2022/05/21 12:02:19;;;;;;;18.13;4.30;;;;;;;24.70;38.56;102206.13;5121824;28;20399;-47
2022/05/21 12:05:01;;;;;;;17.60;4.47;;;;;;;24.76;38.43;102205.28;5136975;28;20486;-50
2022/05/21 12:07:56;;;;;;;17.20;3.92;;;;;;;24.81;38.42;102208.19;5145172;28;20810;-51
2022/05/21 12:10:52;;;;;;;19.58;3.83;;;;;;;24.95;38.35;102208.16;5138850;28;20502;-49
2022/05/21 12:14:01;;;;;;;17.60;4.18;;;;;;;24.93;38.36;102215.63;5141587;28;20419;-48
2022/05/21 12:16:49;;;;;;;22.42;4.15;;;;;;;24.92;38.37;102219.41;5140908;28;20918;-50
2022/05/21 12:20:04;;;;;;;13.00;3.63;;;;;;;24.96;38.22;102213.38;5143712;28;20423;-49
2022/05/21 12:22:51;;;;;;;15.73;3.80;;;;;;;25.00;38.25;102205.66;5139391;28;21091;-52
2022/05/21 12:26:00;;;;;;;19.98;3.85;;;;;;;25.03;38.08;102202.53;5143997;28;20417;-47
2022/05/21 12:28:47;;;;;;;13.65;3.75;;;;;;;24.89;38.21;102190.09;5143887;28;20883;-46
2022/05/21 12:31:26;;;;;;;17.73;3.90;;;;;;;24.84;38.28;102213.19;5144874;28;20438;-49
2022/05/21 12:34:37;;;;;;;19.52;4.43;;;;;;;24.94;38.20;102209.22;5155857;28;20514;-49
2022/05/21 12:37:19;;;;;;;16.48;3.70;;;;;;;24.84;38.32;102228.56;5143568;28;20418;-46